Helsingor, Denmark
Current Conditions -  °F | °C
As of 11:20 PM on Thursday 18 Dec 2014 (Local Time) from ESTA Reporting Station
Overcast Overcast  
Wind Chill: 41°   Ceiling: 500
Heat Index: 48°   Visibility: 6mi
Dew Point: 46°   Wind: 20mph
Humidity: 93%   Direction: 240°WSW
Pressure: 29.32"   Gusts: NA
Location:  56.04°N, 12.61°E
Report Text: ESTA 182220Z AUTO 24017KT 9999 OVC005/// 09/08 Q0993
Loading
Personal Weather Stations






























Interactive Weather Map New forecast layout! Learn more

10-Day Weather Forecast

Advertisements
Track Severe Weather on mobile